sensor_id;sensor_type;location;lat;lon;timestamp;P1;durP1;ratioP1;P2;durP2;ratioP2
51298;SDS011;37382;45.192;9.790;2023-07-31T00:00:59;17.05;;;14.63;;
51298;SDS011;37382;45.192;9.790;2023-07-31T00:03:26;17.95;;;15.20;;
51298;SDS011;37382;45.192;9.790;2023-07-31T00:05:54;21.45;;;15.10;;
51298;SDS011;37382;45.192;9.790;2023-07-31T00:08:22;21.95;;;15.95;;
51298;SDS011;37382;45.192;9.790;2023-07-31T00:10:51;16.80;;;15.10;;
51298;SDS011;37382;45.192;9.790;2023-07-31T00:13:19;23.58;;;14.65;;
51298;SDS011;37382;45.192;9.790;2023-07-31T00:15:48;22.17;;;15.20;;
51298;SDS011;37382;45.192;9.790;2023-07-31T00:18:16;16.77;;;15.00;;
51298;SDS011;37382;45.192;9.790;2023-07-31T00:20:43;19.67;;;14.50;;
51298;SDS011;37382;45.192;9.790;2023-07-31T00:23:11;16.35;;;14.50;;
51298;SDS011;37382;45.192;9.790;2023-07-31T00:25:39;20.60;;;13.90;;
51298;SDS011;37382;45.192;9.790;2023-07-31T00:28:06;16.60;;;14.90;;
51298;SDS011;37382;45.192;9.790;2023-07-31T00:30:34;16.70;;;14.63;;
51298;SDS011;37382;45.192;9.790;2023-07-31T00:33:01;17.65;;;14.65;;
51298;SDS011;37382;45.192;9.790;2023-07-31T00:35:29;18.13;;;14.52;;
51298;SDS011;37382;45.192;9.790;2023-07-31T00:37:58;17.08;;;14.48;;
51298;SDS011;37382;45.192;9.790;2023-07-31T00:40:26;16.27;;;14.52;;
51298;SDS011;37382;45.192;9.790;2023-07-31T00:42:54;19.38;;;14.82;;
51298;SDS011;37382;45.192;9.790;2023-07-31T00:45:21;19.10;;;14.50;;
51298;SDS011;37382;45.192;9.790;2023-07-31T00:47:52;20.50;;;13.37;;
51298;SDS011;37382;45.192;9.790;2023-07-31T00:50:19;18.48;;;13.52;;
51298;SDS011;37382;45.192;9.790;2023-07-31T00:52:47;16.02;;;13.77;;
51298;SDS011;37382;45.192;9.790;2023-07-31T00:55:14;15.75;;;13.95;;
51298;SDS011;37382;45.192;9.790;2023-07-31T00:57:42;18.95;;;13.23;;
51298;SDS011;37382;45.192;9.790;2023-07-31T01:00:11;15.20;;;11.90;;
51298;SDS011;37382;45.192;9.790;2023-07-31T01:02:39;19.08;;;13.30;;
51298;SDS011;37382;45.192;9.790;2023-07-31T01:05:07;18.25;;;13.60;;
51298;SDS011;37382;45.192;9.790;2023-07-31T01:12:42;13.50;;;10.43;;
51298;SDS011;37382;45.192;9.790;2023-07-31T01:15:12;13.95;;;11.15;;
51298;SDS011;37382;45.192;9.790;2023-07-31T01:17:42;11.00;;;9.50;;
51298;SDS011;37382;45.192;9.790;2023-07-31T01:28:16;12.77;;;9.35;;
51298;SDS011;37382;45.192;9.790;2023-07-31T01:30:48;14.70;;;10.10;;
51298;SDS011;37382;45.192;9.790;2023-07-31T01:33:16;11.50;;;8.93;;
51298;SDS011;37382;45.192;9.790;2023-07-31T01:35:45;11.77;;;8.90;;
51298;SDS011;37382;45.192;9.790;2023-07-31T01:38:16;9.43;;;8.50;;
51298;SDS011;37382;45.192;9.790;2023-07-31T01:40:52;10.10;;;8.63;;
51298;SDS011;37382;45.192;9.790;2023-07-31T01:43:20;9.85;;;8.88;;
51298;SDS011;37382;45.192;9.790;2023-07-31T01:45:49;10.60;;;8.57;;
51298;SDS011;37382;45.192;9.790;2023-07-31T01:48:17;10.45;;;8.90;;
51298;SDS011;37382;45.192;9.790;2023-07-31T01:50:45;15.07;;;8.30;;
51298;SDS011;37382;45.192;9.790;2023-07-31T01:53:13;9.63;;;8.80;;
51298;SDS011;37382;45.192;9.790;2023-07-31T01:55:40;13.82;;;9.00;;
51298;SDS011;37382;45.192;9.790;2023-07-31T01:58:09;10.93;;;8.80;;
51298;SDS011;37382;45.192;9.790;2023-07-31T02:00:37;12.55;;;8.75;;
51298;SDS011;37382;45.192;9.790;2023-07-31T02:03:05;17.63;;;8.93;;
51298;SDS011;37382;45.192;9.790;2023-07-31T02:05:33;10.77;;;8.60;;
51298;SDS011;37382;45.192;9.790;2023-07-31T02:08:00;11.73;;;9.00;;
51298;SDS011;37382;45.192;9.790;2023-07-31T02:10:30;11.85;;;8.25;;
51298;SDS011;37382;45.192;9.790;2023-07-31T02:12:59;11.00;;;8.65;;
51298;SDS011;37382;45.192;9.790;2023-07-31T02:15:26;13.20;;;8.90;;
51298;SDS011;37382;45.192;9.790;2023-07-31T02:17:54;9.63;;;8.60;;
51298;SDS011;37382;45.192;9.790;2023-07-31T02:20:22;13.18;;;9.10;;
51298;SDS011;37382;45.192;9.790;2023-07-31T02:22:49;12.30;;;8.50;;
51298;SDS011;37382;45.192;9.790;2023-07-31T02:25:17;10.23;;;8.90;;
51298;SDS011;37382;45.192;9.790;2023-07-31T02:27:46;9.75;;;8.52;;
51298;SDS011;37382;45.192;9.790;2023-07-31T02:30:15;9.48;;;8.45;;
51298;SDS011;37382;45.192;9.790;2023-07-31T02:32:44;11.88;;;8.18;;
51298;SDS011;37382;45.192;9.790;2023-07-31T02:35:11;10.93;;;8.90;;
51298;SDS011;37382;45.192;9.790;2023-07-31T02:37:42;11.50;;;8.73;;
51298;SDS011;37382;45.192;9.790;2023-07-31T02:40:09;10.50;;;8.85;;
51298;SDS011;37382;45.192;9.790;2023-07-31T02:42:37;14.00;;;9.13;;
51298;SDS011;37382;45.192;9.790;2023-07-31T02:45:05;14.85;;;9.23;;
51298;SDS011;37382;45.192;9.790;2023-07-31T02:47:33;12.77;;;9.88;;
51298;SDS011;37382;45.192;9.790;2023-07-31T02:50:02;10.85;;;9.48;;
51298;SDS011;37382;45.192;9.790;2023-07-31T02:52:32;11.10;;;9.85;;
51298;SDS011;37382;45.192;9.790;2023-07-31T02:55:00;10.90;;;9.88;;
51298;SDS011;37382;45.192;9.790;2023-07-31T02:57:28;11.70;;;9.05;;
51298;SDS011;37382;45.192;9.790;2023-07-31T02:59:55;13.18;;;10.30;;
51298;SDS011;37382;45.192;9.790;2023-07-31T03:02:23;11.75;;;9.30;;
51298;SDS011;37382;45.192;9.790;2023-07-31T03:04:51;12.27;;;9.95;;
51298;SDS011;37382;45.192;9.790;2023-07-31T03:07:18;11.63;;;9.40;;
51298;SDS011;37382;45.192;9.790;2023-07-31T03:09:45;12.32;;;10.13;;
51298;SDS011;37382;45.192;9.790;2023-07-31T03:12:14;13.95;;;10.38;;
51298;SDS011;37382;45.192;9.790;2023-07-31T03:14:42;12.45;;;10.65;;
51298;SDS011;37382;45.192;9.790;2023-07-31T03:17:09;13.77;;;9.98;;
51298;SDS011;37382;45.192;9.790;2023-07-31T03:19:36;11.98;;;10.77;;
51298;SDS011;37382;45.192;9.790;2023-07-31T03:22:04;13.93;;;10.23;;
51298;SDS011;37382;45.192;9.790;2023-07-31T03:24:32;17.23;;;11.18;;
51298;SDS011;37382;45.192;9.790;2023-07-31T03:27:00;12.38;;;11.27;;
51298;SDS011;37382;45.192;9.790;2023-07-31T03:29:27;12.93;;;11.57;;
51298;SDS011;37382;45.192;9.790;2023-07-31T03:31:55;12.40;;;11.15;;
51298;SDS011;37382;45.192;9.790;2023-07-31T03:34:23;12.40;;;11.10;;
51298;SDS011;37382;45.192;9.790;2023-07-31T03:36:50;16.20;;;11.35;;
51298;SDS011;37382;45.192;9.790;2023-07-31T03:39:18;15.05;;;11.77;;
51298;SDS011;37382;45.192;9.790;2023-07-31T03:41:46;13.25;;;11.82;;
51298;SDS011;37382;45.192;9.790;2023-07-31T03:44:13;14.85;;;12.35;;
51298;SDS011;37382;45.192;9.790;2023-07-31T03:46:41;13.00;;;11.25;;
51298;SDS011;37382;45.192;9.790;2023-07-31T03:49:09;12.63;;;11.13;;
51298;SDS011;37382;45.192;9.790;2023-07-31T03:51:36;15.75;;;12.60;;
51298;SDS011;37382;45.192;9.790;2023-07-31T03:54:04;12.85;;;11.32;;
51298;SDS011;37382;45.192;9.790;2023-07-31T03:56:32;14.32;;;12.20;;
51298;SDS011;37382;45.192;9.790;2023-07-31T03:59:02;14.50;;;11.60;;
51298;SDS011;37382;45.192;9.790;2023-07-31T04:01:30;14.75;;;11.90;;
51298;SDS011;37382;45.192;9.790;2023-07-31T04:03:57;14.23;;;12.05;;
51298;SDS011;37382;45.192;9.790;2023-07-31T04:06:25;15.98;;;12.43;;
51298;SDS011;37382;45.192;9.790;2023-07-31T04:08:53;13.98;;;12.18;;
51298;SDS011;37382;45.192;9.790;2023-07-31T04:11:20;13.25;;;10.77;;
51298;SDS011;37382;45.192;9.790;2023-07-31T04:13:48;13.63;;;12.20;;
51298;SDS011;37382;45.192;9.790;2023-07-31T04:16:15;16.85;;;12.20;;
51298;SDS011;37382;45.192;9.790;2023-07-31T04:18:42;13.93;;;12.52;;
51298;SDS011;37382;45.192;9.790;2023-07-31T04:21:12;13.80;;;12.50;;
51298;SDS011;37382;45.192;9.790;2023-07-31T04:23:40;18.13;;;12.32;;
51298;SDS011;37382;45.192;9.790;2023-07-31T04:26:07;14.02;;;12.60;;
51298;SDS011;37382;45.192;9.790;2023-07-31T04:28:35;14.23;;;12.68;;
51298;SDS011;37382;45.192;9.790;2023-07-31T04:31:03;14.68;;;13.18;;
51298;SDS011;37382;45.192;9.790;2023-07-31T04:33:31;15.05;;;12.88;;
51298;SDS011;37382;45.192;9.790;2023-07-31T04:35:59;14.07;;;11.98;;
51298;SDS011;37382;45.192;9.790;2023-07-31T04:38:26;15.38;;;12.30;;
51298;SDS011;37382;45.192;9.790;2023-07-31T04:40:53;23.15;;;11.85;;
51298;SDS011;37382;45.192;9.790;2023-07-31T04:43:21;16.20;;;11.75;;
51298;SDS011;37382;45.192;9.790;2023-07-31T04:45:49;17.63;;;11.13;;
51298;SDS011;37382;45.192;9.790;2023-07-31T04:48:17;13.25;;;11.95;;
51298;SDS011;37382;45.192;9.790;2023-07-31T04:50:45;29.23;;;13.90;;
51298;SDS011;37382;45.192;9.790;2023-07-31T04:53:12;12.02;;;10.80;;
51298;SDS011;37382;45.192;9.790;2023-07-31T04:55:40;12.35;;;11.10;;
51298;SDS011;37382;45.192;9.790;2023-07-31T04:58:07;16.30;;;11.20;;
51298;SDS011;37382;45.192;9.790;2023-07-31T05:00:35;13.57;;;10.85;;
51298;SDS011;37382;45.192;9.790;2023-07-31T05:03:03;13.18;;;11.82;;
51298;SDS011;37382;45.192;9.790;2023-07-31T05:05:32;15.05;;;11.35;;
51298;SDS011;37382;45.192;9.790;2023-07-31T05:08:00;15.18;;;11.82;;
51298;SDS011;37382;45.192;9.790;2023-07-31T05:10:28;36.72;;;13.20;;
51298;SDS011;37382;45.192;9.790;2023-07-31T05:12:55;15.30;;;11.55;;
51298;SDS011;37382;45.192;9.790;2023-07-31T05:15:23;13.30;;;12.00;;
51298;SDS011;37382;45.192;9.790;2023-07-31T05:17:51;12.82;;;11.52;;
51298;SDS011;37382;45.192;9.790;2023-07-31T05:20:19;14.43;;;11.95;;
51298;SDS011;37382;45.192;9.790;2023-07-31T05:22:46;13.98;;;12.15;;
51298;SDS011;37382;45.192;9.790;2023-07-31T05:25:14;13.93;;;10.57;;
51298;SDS011;37382;45.192;9.790;2023-07-31T05:27:42;13.82;;;11.98;;
51298;SDS011;37382;45.192;9.790;2023-07-31T05:30:09;13.98;;;10.75;;
51298;SDS011;37382;45.192;9.790;2023-07-31T05:32:37;13.07;;;10.75;;
51298;SDS011;37382;45.192;9.790;2023-07-31T05:35:04;15.25;;;11.88;;
51298;SDS011;37382;45.192;9.790;2023-07-31T05:37:32;17.52;;;11.82;;
51298;SDS011;37382;45.192;9.790;2023-07-31T05:40:00;11.43;;;10.23;;
51298;SDS011;37382;45.192;9.790;2023-07-31T05:42:28;16.92;;;10.77;;
51298;SDS011;37382;45.192;9.790;2023-07-31T05:44:56;15.02;;;10.50;;
51298;SDS011;37382;45.192;9.790;2023-07-31T05:47:23;17.67;;;11.43;;
51298;SDS011;37382;45.192;9.790;2023-07-31T05:49:51;13.10;;;11.80;;
51298;SDS011;37382;45.192;9.790;2023-07-31T05:52:19;12.82;;;11.38;;
51298;SDS011;37382;45.192;9.790;2023-07-31T05:54:47;14.98;;;10.73;;
51298;SDS011;37382;45.192;9.790;2023-07-31T05:57:14;13.30;;;10.45;;
51298;SDS011;37382;45.192;9.790;2023-07-31T05:59:42;14.48;;;10.38;;
51298;SDS011;37382;45.192;9.790;2023-07-31T06:02:10;15.23;;;10.40;;
51298;SDS011;37382;45.192;9.790;2023-07-31T06:04:38;16.65;;;10.30;;
51298;SDS011;37382;45.192;9.790;2023-07-31T06:07:06;14.23;;;10.18;;
51298;SDS011;37382;45.192;9.790;2023-07-31T06:09:34;24.60;;;9.75;;
51298;SDS011;37382;45.192;9.790;2023-07-31T06:12:02;26.45;;;10.10;;
51298;SDS011;37382;45.192;9.790;2023-07-31T06:14:30;23.88;;;10.38;;
51298;SDS011;37382;45.192;9.790;2023-07-31T06:16:58;24.95;;;9.70;;
51298;SDS011;37382;45.192;9.790;2023-07-31T06:19:26;21.58;;;9.98;;
51298;SDS011;37382;45.192;9.790;2023-07-31T06:21:53;42.83;;;11.05;;
51298;SDS011;37382;45.192;9.790;2023-07-31T06:24:21;17.42;;;9.70;;
51298;SDS011;37382;45.192;9.790;2023-07-31T06:26:49;20.55;;;9.75;;
51298;SDS011;37382;45.192;9.790;2023-07-31T06:29:17;19.88;;;8.82;;
51298;SDS011;37382;45.192;9.790;2023-07-31T06:31:46;21.08;;;9.05;;
51298;SDS011;37382;45.192;9.790;2023-07-31T06:34:14;14.10;;;9.63;;
51298;SDS011;37382;45.192;9.790;2023-07-31T06:36:41;14.43;;;10.52;;
51298;SDS011;37382;45.192;9.790;2023-07-31T06:39:09;12.85;;;8.18;;
51298;SDS011;37382;45.192;9.790;2023-07-31T06:41:37;17.08;;;8.07;;
51298;SDS011;37382;45.192;9.790;2023-07-31T06:44:07;22.93;;;9.37;;
51298;SDS011;37382;45.192;9.790;2023-07-31T06:46:35;21.23;;;9.10;;
51298;SDS011;37382;45.192;9.790;2023-07-31T06:49:02;17.23;;;9.27;;
51298;SDS011;37382;45.192;9.790;2023-07-31T06:51:30;15.68;;;8.63;;
51298;SDS011;37382;45.192;9.790;2023-07-31T06:53:58;18.40;;;8.75;;
51298;SDS011;37382;45.192;9.790;2023-07-31T06:56:27;24.10;;;8.70;;
51298;SDS011;37382;45.192;9.790;2023-07-31T06:58:55;18.17;;;7.72;;
51298;SDS011;37382;45.192;9.790;2023-07-31T07:01:23;12.60;;;7.53;;
51298;SDS011;37382;45.192;9.790;2023-07-31T07:03:50;18.52;;;8.07;;
51298;SDS011;37382;45.192;9.790;2023-07-31T07:06:18;15.75;;;7.60;;
51298;SDS011;37382;45.192;9.790;2023-07-31T07:08:46;11.90;;;8.40;;
51298;SDS011;37382;45.192;9.790;2023-07-31T07:11:14;13.45;;;8.38;;
51298;SDS011;37382;45.192;9.790;2023-07-31T07:13:42;12.45;;;8.48;;
51298;SDS011;37382;45.192;9.790;2023-07-31T07:16:10;15.15;;;8.07;;
51298;SDS011;37382;45.192;9.790;2023-07-31T07:18:38;14.38;;;8.05;;
51298;SDS011;37382;45.192;9.790;2023-07-31T07:21:20;10.55;;;7.45;;
51298;SDS011;37382;45.192;9.790;2023-07-31T07:23:48;11.27;;;7.78;;
51298;SDS011;37382;45.192;9.790;2023-07-31T07:26:15;10.70;;;7.97;;
51298;SDS011;37382;45.192;9.790;2023-07-31T07:28:43;8.35;;;7.53;;
51298;SDS011;37382;45.192;9.790;2023-07-31T07:31:11;8.55;;;7.65;;
51298;SDS011;37382;45.192;9.790;2023-07-31T07:33:38;12.15;;;8.02;;
51298;SDS011;37382;45.192;9.790;2023-07-31T07:36:05;16.10;;;7.43;;
51298;SDS011;37382;45.192;9.790;2023-07-31T07:38:36;14.27;;;8.25;;
51298;SDS011;37382;45.192;9.790;2023-07-31T07:41:05;15.88;;;8.10;;
51298;SDS011;37382;45.192;9.790;2023-07-31T07:43:33;14.73;;;7.68;;
51298;SDS011;37382;45.192;9.790;2023-07-31T07:46:00;11.13;;;7.80;;
51298;SDS011;37382;45.192;9.790;2023-07-31T07:48:28;11.52;;;7.15;;
51298;SDS011;37382;45.192;9.790;2023-07-31T07:50:56;11.82;;;7.18;;
51298;SDS011;37382;45.192;9.790;2023-07-31T07:53:23;7.80;;;7.00;;
51298;SDS011;37382;45.192;9.790;2023-07-31T07:55:50;11.00;;;6.57;;
51298;SDS011;37382;45.192;9.790;2023-07-31T07:58:18;10.05;;;6.22;;
51298;SDS011;37382;45.192;9.790;2023-07-31T08:00:50;7.88;;;5.85;;
51298;SDS011;37382;45.192;9.790;2023-07-31T08:03:18;7.72;;;5.60;;
51298;SDS011;37382;45.192;9.790;2023-07-31T08:05:46;10.52;;;5.25;;
51298;SDS011;37382;45.192;9.790;2023-07-31T08:08:15;9.38;;;5.43;;
51298;SDS011;37382;45.192;9.790;2023-07-31T08:10:43;8.35;;;5.47;;
51298;SDS011;37382;45.192;9.790;2023-07-31T08:13:11;9.68;;;4.93;;
51298;SDS011;37382;45.192;9.790;2023-07-31T08:15:42;9.45;;;4.93;;
51298;SDS011;37382;45.192;9.790;2023-07-31T08:20:41;6.68;;;5.07;;
51298;SDS011;37382;45.192;9.790;2023-07-31T08:23:09;9.45;;;4.65;;
51298;SDS011;37382;45.192;9.790;2023-07-31T08:25:36;11.55;;;4.72;;
51298;SDS011;37382;45.192;9.790;2023-07-31T08:28:05;7.68;;;4.13;;
51298;SDS011;37382;45.192;9.790;2023-07-31T08:30:33;7.97;;;4.20;;
51298;SDS011;37382;45.192;9.790;2023-07-31T08:33:01;4.95;;;3.78;;
51298;SDS011;37382;45.192;9.790;2023-07-31T08:35:29;8.23;;;3.42;;
51298;SDS011;37382;45.192;9.790;2023-07-31T08:37:57;14.50;;;3.88;;
51298;SDS011;37382;45.192;9.790;2023-07-31T08:40:25;8.60;;;4.20;;
51298;SDS011;37382;45.192;9.790;2023-07-31T08:42:54;6.95;;;3.78;;
51298;SDS011;37382;45.192;9.790;2023-07-31T08:45:23;13.48;;;3.65;;
51298;SDS011;37382;45.192;9.790;2023-07-31T08:47:51;10.90;;;3.80;;
51298;SDS011;37382;45.192;9.790;2023-07-31T08:50:19;11.38;;;4.30;;
51298;SDS011;37382;45.192;9.790;2023-07-31T08:52:49;5.30;;;3.60;;
51298;SDS011;37382;45.192;9.790;2023-07-31T08:55:17;6.20;;;4.10;;
51298;SDS011;37382;45.192;9.790;2023-07-31T08:57:51;5.10;;;3.60;;
51298;SDS011;37382;45.192;9.790;2023-07-31T09:00:20;7.20;;;3.38;;
51298;SDS011;37382;45.192;9.790;2023-07-31T09:03:00;6.35;;;3.00;;
51298;SDS011;37382;45.192;9.790;2023-07-31T09:05:30;8.13;;;4.18;;
51298;SDS011;37382;45.192;9.790;2023-07-31T09:08:00;5.18;;;3.47;;
51298;SDS011;37382;45.192;9.790;2023-07-31T09:10:29;9.00;;;3.45;;
51298;SDS011;37382;45.192;9.790;2023-07-31T09:12:57;3.97;;;3.55;;
51298;SDS011;37382;45.192;9.790;2023-07-31T09:15:25;6.50;;;4.43;;
51298;SDS011;37382;45.192;9.790;2023-07-31T09:18:05;6.15;;;4.05;;
51298;SDS011;37382;45.192;9.790;2023-07-31T09:20:33;5.80;;;3.20;;
51298;SDS011;37382;45.192;9.790;2023-07-31T09:23:11;7.03;;;4.18;;
51298;SDS011;37382;45.192;9.790;2023-07-31T09:25:43;6.28;;;4.43;;
51298;SDS011;37382;45.192;9.790;2023-07-31T09:30:47;6.65;;;4.20;;
51298;SDS011;37382;45.192;9.790;2023-07-31T09:33:17;9.50;;;4.18;;
51298;SDS011;37382;45.192;9.790;2023-07-31T09:35:46;9.70;;;4.78;;
51298;SDS011;37382;45.192;9.790;2023-07-31T09:38:16;10.77;;;4.85;;
51298;SDS011;37382;45.192;9.790;2023-07-31T09:40:47;8.98;;;5.28;;
51298;SDS011;37382;45.192;9.790;2023-07-31T09:43:19;5.75;;;3.83;;
51298;SDS011;37382;45.192;9.790;2023-07-31T09:45:48;5.10;;;3.50;;
51298;SDS011;37382;45.192;9.790;2023-07-31T09:48:22;13.35;;;4.50;;
51298;SDS011;37382;45.192;9.790;2023-07-31T09:50:54;13.27;;;3.83;;
51298;SDS011;37382;45.192;9.790;2023-07-31T09:53:28;12.10;;;3.55;;
51298;SDS011;37382;45.192;9.790;2023-07-31T09:56:00;5.03;;;3.25;;
51298;SDS011;37382;45.192;9.790;2023-07-31T09:58:29;4.97;;;4.15;;
51298;SDS011;37382;45.192;9.790;2023-07-31T10:03:29;10.93;;;3.97;;
51298;SDS011;37382;45.192;9.790;2023-07-31T10:05:59;11.43;;;3.60;;
51298;SDS011;37382;45.192;9.790;2023-07-31T10:08:30;10.68;;;4.25;;
51298;SDS011;37382;45.192;9.790;2023-07-31T10:11:01;6.13;;;3.30;;
51298;SDS011;37382;45.192;9.790;2023-07-31T10:13:31;6.65;;;4.57;;
51298;SDS011;37382;45.192;9.790;2023-07-31T10:15:59;9.15;;;4.32;;
51298;SDS011;37382;45.192;9.790;2023-07-31T10:18:28;9.07;;;3.65;;
51298;SDS011;37382;45.192;9.790;2023-07-31T10:20:57;7.22;;;2.90;;
51298;SDS011;37382;45.192;9.790;2023-07-31T10:23:25;11.40;;;3.03;;
51298;SDS011;37382;45.192;9.790;2023-07-31T10:25:53;3.35;;;2.80;;
51298;SDS011;37382;45.192;9.790;2023-07-31T10:28:21;8.75;;;4.13;;
51298;SDS011;37382;45.192;9.790;2023-07-31T10:30:49;13.05;;;3.78;;
51298;SDS011;37382;45.192;9.790;2023-07-31T10:33:18;8.05;;;3.47;;
51298;SDS011;37382;45.192;9.790;2023-07-31T10:35:47;6.15;;;3.92;;
51298;SDS011;37382;45.192;9.790;2023-07-31T10:38:15;10.50;;;3.33;;
51298;SDS011;37382;45.192;9.790;2023-07-31T10:40:43;9.77;;;3.70;;
51298;SDS011;37382;45.192;9.790;2023-07-31T10:43:23;8.10;;;4.63;;
51298;SDS011;37382;45.192;9.790;2023-07-31T10:45:55;6.28;;;3.85;;
51298;SDS011;37382;45.192;9.790;2023-07-31T10:48:23;5.65;;;3.33;;
51298;SDS011;37382;45.192;9.790;2023-07-31T10:50:51;8.98;;;3.90;;
51298;SDS011;37382;45.192;9.790;2023-07-31T10:53:25;8.48;;;3.45;;
51298;SDS011;37382;45.192;9.790;2023-07-31T10:56:00;5.25;;;2.80;;
51298;SDS011;37382;45.192;9.790;2023-07-31T10:58:32;7.85;;;3.83;;
51298;SDS011;37382;45.192;9.790;2023-07-31T11:01:02;6.40;;;3.88;;
51298;SDS011;37382;45.192;9.790;2023-07-31T11:03:45;7.55;;;4.22;;
51298;SDS011;37382;45.192;9.790;2023-07-31T11:06:19;8.77;;;4.85;;
51298;SDS011;37382;45.192;9.790;2023-07-31T11:08:50;8.57;;;4.47;;
51298;SDS011;37382;45.192;9.790;2023-07-31T11:11:19;7.18;;;3.95;;
51298;SDS011;37382;45.192;9.790;2023-07-31T11:16:20;10.45;;;3.40;;
51298;SDS011;37382;45.192;9.790;2023-07-31T11:18:50;6.90;;;3.22;;
51298;SDS011;37382;45.192;9.790;2023-07-31T11:21:24;5.10;;;3.65;;
51298;SDS011;37382;45.192;9.790;2023-07-31T11:23:53;5.65;;;3.97;;
51298;SDS011;37382;45.192;9.790;2023-07-31T11:26:27;12.50;;;3.70;;
51298;SDS011;37382;45.192;9.790;2023-07-31T11:28:55;4.05;;;3.00;;
51298;SDS011;37382;45.192;9.790;2023-07-31T11:31:23;4.63;;;2.58;;
51298;SDS011;37382;45.192;9.790;2023-07-31T11:33:50;3.10;;;2.35;;
51298;SDS011;37382;45.192;9.790;2023-07-31T11:36:19;25.17;;;2.60;;
51298;SDS011;37382;45.192;9.790;2023-07-31T11:38:48;6.18;;;2.50;;
51298;SDS011;37382;45.192;9.790;2023-07-31T11:41:16;4.75;;;2.00;;
51298;SDS011;37382;45.192;9.790;2023-07-31T11:43:45;4.80;;;2.30;;
51298;SDS011;37382;45.192;9.790;2023-07-31T11:46:14;3.40;;;2.47;;
51298;SDS011;37382;45.192;9.790;2023-07-31T11:48:42;4.18;;;2.35;;
51298;SDS011;37382;45.192;9.790;2023-07-31T11:51:11;6.88;;;2.50;;
51298;SDS011;37382;45.192;9.790;2023-07-31T11:53:42;16.85;;;3.13;;
51298;SDS011;37382;45.192;9.790;2023-07-31T11:56:12;14.02;;;3.08;;
51298;SDS011;37382;45.192;9.790;2023-07-31T11:58:43;13.05;;;2.88;;
51298;SDS011;37382;45.192;9.790;2023-07-31T12:01:14;6.78;;;2.70;;
51298;SDS011;37382;45.192;9.790;2023-07-31T12:03:45;3.65;;;2.55;;
51298;SDS011;37382;45.192;9.790;2023-07-31T12:06:14;8.43;;;2.42;;
51298;SDS011;37382;45.192;9.790;2023-07-31T12:08:42;10.52;;;2.25;;
51298;SDS011;37382;45.192;9.790;2023-07-31T12:11:10;5.03;;;2.50;;
51298;SDS011;37382;45.192;9.790;2023-07-31T12:13:38;6.43;;;2.70;;
51298;SDS011;37382;45.192;9.790;2023-07-31T12:16:06;9.85;;;2.45;;
51298;SDS011;37382;45.192;9.790;2023-07-31T12:18:35;9.00;;;2.20;;
51298;SDS011;37382;45.192;9.790;2023-07-31T12:21:05;5.05;;;2.17;;
51298;SDS011;37382;45.192;9.790;2023-07-31T12:23:34;2.92;;;2.20;;
51298;SDS011;37382;45.192;9.790;2023-07-31T12:26:07;4.00;;;2.20;;
51298;SDS011;37382;45.192;9.790;2023-07-31T12:33:45;3.97;;;2.38;;
51298;SDS011;37382;45.192;9.790;2023-07-31T12:36:15;4.95;;;2.63;;
51298;SDS011;37382;45.192;9.790;2023-07-31T12:38:45;2.03;;;1.80;;
51298;SDS011;37382;45.192;9.790;2023-07-31T12:41:13;3.17;;;2.20;;
51298;SDS011;37382;45.192;9.790;2023-07-31T12:43:41;4.72;;;2.03;;
51298;SDS011;37382;45.192;9.790;2023-07-31T12:46:11;4.13;;;2.33;;
51298;SDS011;37382;45.192;9.790;2023-07-31T12:48:39;2.05;;;1.85;;
51298;SDS011;37382;45.192;9.790;2023-07-31T12:51:07;6.68;;;2.20;;
51298;SDS011;37382;45.192;9.790;2023-07-31T12:53:35;2.50;;;1.80;;
51298;SDS011;37382;45.192;9.790;2023-07-31T12:56:04;3.20;;;1.85;;
51298;SDS011;37382;45.192;9.790;2023-07-31T12:58:32;4.72;;;2.20;;
51298;SDS011;37382;45.192;9.790;2023-07-31T13:01:00;3.55;;;2.03;;
51298;SDS011;37382;45.192;9.790;2023-07-31T13:03:29;3.33;;;2.20;;
51298;SDS011;37382;45.192;9.790;2023-07-31T13:05:57;4.85;;;2.45;;
51298;SDS011;37382;45.192;9.790;2023-07-31T13:08:25;6.55;;;2.10;;
51298;SDS011;37382;45.192;9.790;2023-07-31T13:10:52;5.13;;;2.10;;
51298;SDS011;37382;45.192;9.790;2023-07-31T13:13:20;2.50;;;2.17;;
51298;SDS011;37382;45.192;9.790;2023-07-31T13:15:49;69.82;;;5.97;;
51298;SDS011;37382;45.192;9.790;2023-07-31T13:18:18;17.35;;;2.90;;
51298;SDS011;37382;45.192;9.790;2023-07-31T13:20:46;8.15;;;2.67;;
51298;SDS011;37382;45.192;9.790;2023-07-31T13:23:14;5.05;;;2.05;;
51298;SDS011;37382;45.192;9.790;2023-07-31T13:25:41;20.63;;;2.58;;
51298;SDS011;37382;45.192;9.790;2023-07-31T13:28:09;3.30;;;1.83;;
51298;SDS011;37382;45.192;9.790;2023-07-31T13:30:37;6.22;;;2.20;;
51298;SDS011;37382;45.192;9.790;2023-07-31T13:33:04;6.65;;;2.53;;
51298;SDS011;37382;45.192;9.790;2023-07-31T13:35:38;3.83;;;2.13;;
51298;SDS011;37382;45.192;9.790;2023-07-31T13:38:07;7.47;;;2.25;;
51298;SDS011;37382;45.192;9.790;2023-07-31T13:40:35;8.25;;;1.77;;
51298;SDS011;37382;45.192;9.790;2023-07-31T13:43:03;3.25;;;1.65;;
51298;SDS011;37382;45.192;9.790;2023-07-31T13:45:30;2.00;;;1.77;;
51298;SDS011;37382;45.192;9.790;2023-07-31T13:47:58;6.55;;;2.00;;
51298;SDS011;37382;45.192;9.790;2023-07-31T13:50:26;6.90;;;1.98;;
51298;SDS011;37382;45.192;9.790;2023-07-31T13:52:54;5.05;;;2.17;;
51298;SDS011;37382;45.192;9.790;2023-07-31T13:55:22;6.18;;;1.95;;
51298;SDS011;37382;45.192;9.790;2023-07-31T13:57:49;3.70;;;1.80;;
51298;SDS011;37382;45.192;9.790;2023-07-31T14:00:18;6.40;;;2.22;;
51298;SDS011;37382;45.192;9.790;2023-07-31T14:02:45;2.28;;;2.03;;
51298;SDS011;37382;45.192;9.790;2023-07-31T14:05:13;9.23;;;2.55;;
51298;SDS011;37382;45.192;9.790;2023-07-31T14:07:40;4.65;;;2.10;;
51298;SDS011;37382;45.192;9.790;2023-07-31T14:10:08;6.85;;;2.00;;
51298;SDS011;37382;45.192;9.790;2023-07-31T14:12:36;6.40;;;2.05;;
51298;SDS011;37382;45.192;9.790;2023-07-31T14:15:10;8.00;;;2.20;;
51298;SDS011;37382;45.192;9.790;2023-07-31T14:17:38;2.70;;;2.00;;
51298;SDS011;37382;45.192;9.790;2023-07-31T14:20:06;4.03;;;2.08;;
51298;SDS011;37382;45.192;9.790;2023-07-31T14:22:35;5.03;;;1.90;;
51298;SDS011;37382;45.192;9.790;2023-07-31T14:25:04;9.13;;;2.38;;
51298;SDS011;37382;45.192;9.790;2023-07-31T14:27:33;5.70;;;1.85;;
51298;SDS011;37382;45.192;9.790;2023-07-31T14:30:00;3.53;;;1.95;;
51298;SDS011;37382;45.192;9.790;2023-07-31T14:32:28;3.83;;;1.77;;
51298;SDS011;37382;45.192;9.790;2023-07-31T14:34:55;5.47;;;1.77;;
51298;SDS011;37382;45.192;9.790;2023-07-31T14:37:25;3.85;;;1.60;;
51298;SDS011;37382;45.192;9.790;2023-07-31T14:39:54;3.45;;;1.90;;
51298;SDS011;37382;45.192;9.790;2023-07-31T14:42:23;10.05;;;1.73;;
51298;SDS011;37382;45.192;9.790;2023-07-31T14:44:50;4.68;;;1.90;;
51298;SDS011;37382;45.192;9.790;2023-07-31T14:47:18;2.25;;;1.73;;
51298;SDS011;37382;45.192;9.790;2023-07-31T14:49:46;2.00;;;1.70;;
51298;SDS011;37382;45.192;9.790;2023-07-31T14:52:14;5.43;;;1.98;;
51298;SDS011;37382;45.192;9.790;2023-07-31T14:54:41;5.05;;;1.88;;
51298;SDS011;37382;45.192;9.790;2023-07-31T14:57:09;15.38;;;2.15;;
51298;SDS011;37382;45.192;9.790;2023-07-31T14:59:36;3.08;;;1.60;;
51298;SDS011;37382;45.192;9.790;2023-07-31T15:02:04;10.10;;;2.10;;
51298;SDS011;37382;45.192;9.790;2023-07-31T15:04:32;4.60;;;1.70;;
51298;SDS011;37382;45.192;9.790;2023-07-31T15:07:00;4.10;;;1.60;;
51298;SDS011;37382;45.192;9.790;2023-07-31T15:09:27;3.28;;;1.90;;
51298;SDS011;37382;45.192;9.790;2023-07-31T15:11:55;5.00;;;1.70;;